Time;durP1;ratioP1;P1;durP2;ratioP2;P2;SDS_P1;SDS_P2;PMS_P1;PMS_P2;Temp;Humidity;BMP_temperature;BMP_pressure;BME280_temperature;BME280_humidity;BME280_pressure;Samples;Min_cycle;Max_cycle;Signal;HPM_P1;HPM_P2
2022/04/05 00:00:13;;;;;;;;;;;9.70;44.60;;;7.80;45.58;99357.47;8249663;28;20012;-80
2022/04/05 00:04:35;;;;;;;;;;;9.70;44.30;;;8.05;45.74;99394.88;8248800;28;20008;-80
2022/04/05 00:08:57;;;;;;;;;;;9.70;44.50;;;7.87;45.69;99357.94;8232388;28;20013;-80
2022/04/05 00:13:19;;;;;;;;;;;9.70;45.10;;;7.86;46.15;99369.28;8268031;28;19928;-80
2022/04/05 00:17:41;;;;;;;;;;;9.70;45.70;;;8.09;46.02;99417.13;8255347;28;20001;-79
2022/04/05 00:22:03;;;;;;;;;;;9.80;44.90;;;8.07;46.18;99419.00;8227919;28;20304;-79
2022/04/05 00:26:25;;;;;;;;;;;9.80;46.50;;;8.17;46.29;99426.09;8240734;28;19924;-79
2022/04/05 00:30:48;;;;;;;;;;;9.90;45.80;;;8.07;46.12;99413.78;8229624;28;19926;-81
2022/04/05 00:35:10;;;;;;;;;;;9.90;45.80;;;8.01;46.41;99409.00;8228602;28;19929;-80
2022/04/05 00:39:32;;;;;;;;;;;9.80;45.40;;;7.82;46.38;99392.00;8231492;28;19918;-80
2022/04/05 00:43:54;;;;;;;;;;;9.70;44.60;;;7.94;46.13;99413.78;8236105;28;20591;-80
2022/04/05 00:48:27;;;;;;;;;;;9.70;44.40;;;8.00;46.18;99420.34;8218729;28;19920;-80
2022/04/05 00:52:49;;;;;;;;;;;9.70;44.70;;;7.85;46.35;99403.97;8209592;28;19922;-80
2022/04/05 00:57:13;;;;;;;;;;;9.70;44.90;;;7.94;45.92;99412.00;8220384;28;19925;-80
2022/04/05 01:01:36;;;;;;;;;;;9.70;44.70;;;8.02;46.12;99424.50;8238150;28;19925;-80
2022/04/05 01:06:01;;;;;;;;;;;9.70;44.30;;;8.03;46.27;99417.53;8240968;28;20008;-80
2022/04/05 01:10:23;;;;;;;;;;;9.60;44.70;;;7.99;46.35;99414.28;8232328;28;19922;-80
2022/04/05 01:14:44;;;;;;;;;;;9.70;44.80;;;8.10;46.63;99431.78;8262434;28;19926;-80
2022/04/05 01:19:07;;;;;;;;;;;9.70;45.00;;;7.98;46.15;99416.06;8268871;28;20004;-80
2022/04/05 01:23:29;;;;;;;;;;;9.70;45.10;;;8.08;46.22;99423.28;8224834;28;20005;-80
2022/04/05 01:27:52;;;;;;;;;;;9.80;45.10;;;8.18;46.64;99434.72;8244616;28;20035;-80
2022/04/05 01:32:14;;;;;;;;;;;9.80;44.70;;;8.14;46.17;99420.25;8276017;28;20029;-80
2022/04/05 01:36:41;;;;;;;;;;;9.90;45.20;;;8.07;46.60;99403.38;8263173;28;20437;-80
2022/04/05 01:41:02;;;;;;;;;;;9.90;45.20;;;8.23;46.23;99431.81;8243187;28;20294;-80
2022/04/05 01:45:24;;;;;;;;;;;9.90;44.80;;;8.30;46.59;99446.09;8251653;28;20347;-80
2022/04/05 01:49:50;;;;;;;;;;;9.90;45.00;;;8.22;46.34;99425.78;8246889;28;20008;-80
2022/04/05 01:55:08;;;;;;;;;;;10.00;45.00;;;8.32;46.48;99439.84;8254270;28;19979;-80
2022/04/05 01:59:31;;;;;;;;;;;10.00;46.40;;;8.23;46.75;99435.25;8259391;28;20016;-80
2022/04/05 02:03:53;;;;;;;;;;;9.90;45.40;;;8.25;46.74;99440.34;8254034;28;20031;-80
2022/04/05 02:08:15;;;;;;;;;;;10.00;45.50;;;8.16;46.39;99419.22;8252680;28;20443;-80
2022/04/05 02:12:37;;;;;;;;;;;9.90;45.70;;;8.24;46.45;99434.31;8272385;28;19928;-80
2022/04/05 02:17:08;;;;;;;;;;;9.80;45.00;;;8.16;46.34;99421.81;8248528;28;20016;-81
2022/04/05 02:21:32;;;;;;;;;;;9.90;45.30;;;8.16;46.55;99421.81;8256419;28;20426;-80
2022/04/05 02:25:54;;;;;;;;;;;9.90;44.80;;;8.12;46.33;99422.94;8269744;28;20018;-80
2022/04/05 02:30:20;;;;;;;;;;;9.80;44.80;;;8.12;46.59;99429.91;8250539;28;20000;-80
2022/04/05 02:34:46;;;;;;;;;;;9.90;44.90;;;8.09;46.73;99430.13;8253375;28;19928;-80
2022/04/05 02:39:11;;;;;;;;;;;9.90;44.40;;;8.06;46.90;99433.75;8259929;28;20020;-80
2022/04/05 02:43:35;;;;;;;;;;;9.90;44.40;;;8.15;46.31;99450.53;8248579;28;19924;-79
2022/04/05 02:47:57;;;;;;;;;;;9.90;44.40;;;8.11;46.43;99436.91;8232797;28;19926;-80
2022/04/05 02:52:21;;;;;;;;;;;9.80;44.40;;;8.08;46.41;99441.47;8256978;28;19922;-80
2022/04/05 02:56:49;;;;;;;;;;;9.90;44.80;;;8.13;46.60;99442.84;8258210;28;19922;-80
2022/04/05 03:01:12;;;;;;;;;;;9.90;44.50;;;8.15;46.55;99453.94;8276947;28;20012;-80
2022/04/05 03:05:35;;;;;;;;;;;9.90;44.50;;;8.23;46.84;99469.03;8247752;28;20008;-80
2022/04/05 03:10:01;;;;;;;;;;;9.90;44.50;;;8.15;46.37;99460.91;8277613;28;20332;-80
2022/04/05 03:14:24;;;;;;;;;;;9.90;44.40;;;8.22;46.79;99472.59;8248462;28;19928;-80
2022/04/05 03:18:47;;;;;;;;;;;10.00;44.40;;;8.18;46.77;99469.38;8247352;28;20008;-80
2022/04/05 03:23:11;;;;;;;;;;;9.80;44.70;;;7.64;46.37;99388.84;8247442;28;20012;-80
2022/04/05 03:27:37;;;;;;;;;;;9.90;45.00;;;8.10;46.44;99465.59;8254969;28;20009;-80
2022/04/05 03:31:59;;;;;;;;;;;9.80;44.80;;;8.16;46.43;99491.22;8270188;28;20024;-80
2022/04/05 03:36:22;;;;;;;;;;;9.90;44.70;;;8.11;47.05;99482.88;8236520;28;20009;-80
2022/04/05 03:40:45;;;;;;;;;;;9.90;44.60;;;8.13;47.00;99492.25;8228854;28;20008;-80
2022/04/05 03:45:08;;;;;;;;;;;9.90;44.60;;;8.07;46.57;99489.19;8272203;28;20294;-80
2022/04/05 03:49:30;;;;;;;;;;;9.90;45.00;;;8.15;46.85;99500.75;8262814;28;20057;-80
2022/04/05 03:53:54;;;;;;;;;;;9.90;44.60;;;8.18;46.38;99502.31;8253138;28;19922;-80
2022/04/05 03:58:17;;;;;;;;;;;9.80;44.50;;;8.18;46.80;99508.38;8234207;28;20389;-80
2022/04/05 04:02:41;;;;;;;;;;;9.80;44.90;;;7.96;46.88;99472.50;8250230;28;19928;-80
2022/04/05 04:07:05;;;;;;;;;;;9.80;44.40;;;8.10;46.51;99494.19;8245599;28;20028;-80
2022/04/05 04:11:27;;;;;;;;;;;9.80;44.60;;;8.05;46.57;99504.06;8237316;28;19940;-80
2022/04/05 04:15:49;;;;;;;;;;;9.80;44.40;;;8.16;46.74;99522.41;8235754;28;20441;-79
2022/04/05 04:20:12;;;;;;;;;;;9.90;44.50;;;8.20;46.78;99531.66;8243884;28;20005;-80
2022/04/05 04:24:35;;;;;;;;;;;9.70;44.30;;;8.21;46.81;99530.75;8242403;28;20009;-80
2022/04/05 04:29:02;;;;;;;;;;;9.70;44.20;;;8.10;46.74;99526.25;8245992;28;19993;-80
2022/04/05 04:33:24;;;;;;;;;;;9.80;44.30;;;8.15;46.77;99539.75;8252921;28;19922;-80
2022/04/05 04:37:46;;;;;;;;;;;9.90;44.40;;;8.17;46.91;99547.47;8270855;28;20043;-80
2022/04/05 04:42:07;;;;;;;;;;;9.90;44.50;;;8.12;46.80;99533.91;8252653;28;20355;-80
2022/04/05 04:46:29;;;;;;;;;;;9.90;44.60;;;8.16;47.12;99562.25;8252214;28;20000;-80
2022/04/05 04:50:51;;;;;;;;;;;9.90;44.30;;;8.08;46.67;99550.66;8265216;28;20450;-80
2022/04/05 04:55:13;;;;;;;;;;;9.80;44.30;;;8.15;47.12;99562.31;8266481;28;19933;-79
2022/04/05 04:59:35;;;;;;;;;;;9.70;44.10;;;8.14;47.22;99573.66;8240224;28;20017;-80
2022/04/05 05:03:58;;;;;;;;;;;9.80;44.30;;;7.99;46.66;99557.25;8240750;28;19997;-79
2022/04/05 05:08:19;;;;;;;;;;;9.80;44.90;;;8.12;47.23;99576.34;8210692;28;19918;-80
2022/04/05 05:12:42;;;;;;;;;;;9.70;44.30;;;8.11;46.85;99576.47;8230473;28;19926;-79
2022/04/05 05:17:04;;;;;;;;;;;9.80;44.60;;;8.02;47.01;99558.84;8253104;28;19997;-79
2022/04/05 05:21:25;;;;;;;;;;;9.80;45.20;;;8.10;46.90;99583.44;8227083;28;20017;-79
2022/04/05 05:25:48;;;;;;;;;;;9.70;44.70;;;8.09;47.27;99589.56;8240736;28;20040;-79
2022/04/05 05:30:09;;;;;;;;;;;9.80;44.70;;;7.95;46.89;99574.81;8242830;28;20000;-79
2022/04/05 05:34:31;;;;;;;;;;;9.70;44.40;;;8.08;47.13;99592.28;8265652;28;19922;-79
2022/04/05 05:38:53;;;;;;;;;;;9.80;44.60;;;8.08;46.91;99595.69;8251894;28;19917;-79
2022/04/05 05:43:15;;;;;;;;;;;9.70;44.40;;;8.07;47.18;99608.78;8250728;28;20012;-79
2022/04/05 05:47:37;;;;;;;;;;;9.80;45.20;;;8.02;47.28;99610.81;8257959;28;20014;-80
2022/04/05 05:51:58;;;;;;;;;;;9.80;44.60;;;8.08;47.35;99619.09;8250765;28;19993;-80
2022/04/05 05:56:20;;;;;;;;;;;9.80;44.90;;;7.98;47.19;99618.81;8254036;28;19928;-80
2022/04/05 06:00:42;;;;;;;;;;;9.80;45.60;;;8.09;47.47;99644.16;8245128;28;19924;-80
2022/04/05 06:05:05;;;;;;;;;;;9.80;46.20;;;8.01;47.28;99641.19;8264605;28;19918;-81
2022/04/05 06:09:27;;;;;;;;;;;9.80;45.40;;;8.08;47.03;99663.28;8249618;28;19922;-81
2022/04/05 06:13:50;;;;;;;;;;;9.80;44.80;;;8.10;47.50;99660.59;8272558;28;19926;-83
2022/04/05 06:18:11;;;;;;;;;;;9.80;44.60;;;8.08;47.27;99662.47;8251033;28;20020;-82
2022/04/05 06:22:53;;;;;;;;;;;9.70;45.00;;;8.13;47.10;99660.41;8257410;28;20001;-81
2022/04/05 06:27:15;;;;;;;;;;;9.90;44.90;;;8.17;47.02;99680.91;8260386;28;20298;-81
2022/04/05 06:31:37;;;;;;;;;;;9.90;46.00;;;8.20;47.24;99696.31;8247625;28;20302;-81
2022/04/05 06:35:59;;;;;;;;;;;9.90;45.40;;;8.16;47.49;99686.22;8238410;28;19922;-80
2022/04/05 06:40:21;;;;;;;;;;;9.90;44.80;;;8.12;47.13;99685.56;8256583;28;20025;-80
2022/04/05 06:44:43;;;;;;;;;;;9.90;46.00;;;8.14;47.26;99701.09;8252525;28;20012;-80
2022/04/05 06:49:05;;;;;;;;;;;9.90;45.50;;;8.09;47.51;99692.72;8231555;28;20147;-81
2022/04/05 06:53:27;;;;;;;;;;;9.90;45.20;;;8.22;47.24;99711.84;8246832;28;19928;-80
2022/04/05 06:57:48;;;;;;;;;;;10.00;45.20;;;8.29;47.66;99727.91;8246037;28;20008;-80
2022/04/05 07:02:11;;;;;;;;;;;10.00;45.20;;;8.30;47.45;99730.41;8254593;28;20009;-81
2022/04/05 07:06:33;;;;;;;;;;;9.90;45.30;;;8.14;47.53;99701.91;8234266;28;20539;-81
2022/04/05 07:10:55;;;;;;;;;;;10.30;45.30;;;8.24;47.24;99725.59;8208927;28;19918;-80
2022/04/05 07:15:17;;;;;;;;;;;10.00;44.80;;;8.27;47.39;99729.78;8212644;28;19930;-81
2022/04/05 07:19:38;;;;;;;;;;;10.10;44.80;;;8.27;47.64;99730.59;8245705;28;20005;-80
2022/04/05 07:24:00;;;;;;;;;;;10.10;44.70;;;8.25;47.50;99737.66;8256141;28;20013;-80
2022/04/05 07:28:22;;;;;;;;;;;10.10;45.30;;;8.44;47.51;99762.56;8253157;28;20354;-80
2022/04/05 07:32:45;;;;;;;;;;;10.10;45.00;;;8.40;47.56;99754.97;8263726;28;20394;-80
2022/04/05 07:37:09;;;;;;;;;;;10.20;45.50;;;8.44;47.40;99746.97;8244312;28;20451;-80
2022/04/05 07:41:31;;;;;;;;;;;10.20;45.60;;;8.60;47.84;99764.13;8250678;28;20005;-81
2022/04/05 07:45:53;;;;;;;;;;;10.20;45.60;;;8.55;47.69;99747.94;8257245;28;19952;-80
2022/04/05 07:50:15;;;;;;;;;;;10.40;45.30;;;8.56;47.36;99741.84;8251091;28;19917;-81
2022/04/05 07:54:37;;;;;;;;;;;10.40;45.10;;;8.60;47.40;99752.88;8246456;28;19928;-86
2022/04/05 07:59:00;;;;;;;;;;;10.40;45.20;;;8.75;47.69;99790.09;8240481;28;19924;-82
2022/04/05 08:03:22;;;;;;;;;;;10.60;44.50;;;8.74;47.67;99775.44;8238609;28;19940;-80
2022/04/05 08:07:44;;;;;;;;;;;10.50;44.80;;;8.85;47.64;99794.63;8251943;28;20017;-83
2022/04/05 08:12:06;;;;;;;;;;;10.60;44.50;;;8.79;47.67;99787.22;8216546;28;19952;-82
2022/04/05 08:16:28;;;;;;;;;;;10.60;44.30;;;9.00;47.70;99802.44;8228575;28;19923;-85
2022/04/05 08:20:51;;;;;;;;;;;10.70;44.70;;;8.98;47.38;99776.47;8206172;28;22335;-81
2022/04/05 08:25:17;;;;;;;;;;;10.80;44.50;;;9.13;47.56;99781.63;8201916;28;19918;-81
2022/04/05 08:29:41;;;;;;;;;;;10.90;45.30;;;9.27;47.70;99799.81;8219021;28;19927;-86
2022/04/05 08:34:02;;;;;;;;;;;11.00;44.90;;;9.32;47.54;99792.56;8208017;28;20403;-87
2022/04/05 08:38:25;;;;;;;;;;;11.10;44.30;;;9.51;47.90;99813.88;8211791;28;19926;-84
2022/04/05 08:42:52;;;;;;;;;;;11.20;44.20;;;9.64;47.16;99823.47;8229435;28;19932;-85
2022/04/05 08:47:14;;;;;;;;;;;11.40;44.00;;;9.73;47.23;99831.53;8218187;28;20416;-81
2022/04/05 08:51:36;;;;;;;;;;;11.50;43.60;;;9.71;47.55;99809.94;8221908;28;19941;-83
2022/04/05 08:55:58;;;;;;;;;;;11.50;43.80;;;9.95;47.04;99827.50;8233038;28;19948;-82
2022/04/05 09:00:21;;;;;;;;;;;11.60;43.40;;;10.07;47.24;99831.03;8237631;28;19944;-82
2022/04/05 09:04:45;;;;;;;;;;;11.80;43.40;;;9.99;47.30;99826.38;8231736;28;19926;-82
2022/04/05 09:09:10;;;;;;;;;;;11.90;43.30;;;10.28;47.07;99854.88;8227499;28;19937;-81
2022/04/05 09:13:32;;;;;;;;;;;12.00;43.10;;;10.14;47.25;99842.75;8207512;28;19927;-82
2022/04/05 09:17:54;;;;;;;;;;;12.00;42.80;;;10.23;47.37;99855.16;8194707;28;19928;-81
2022/04/05 09:22:30;;;;;;;;;;;12.10;42.60;;;10.36;47.51;99879.50;8224541;28;19922;-82
2022/04/05 09:26:51;;;;;;;;;;;12.00;42.50;;;10.32;46.97;99853.75;8231094;28;20771;-82
2022/04/05 09:31:17;;;;;;;;;;;12.30;42.60;;;10.32;46.96;99846.75;8248926;28;20338;-83
2022/04/05 09:35:43;;;;;;;;;;;12.20;42.30;;;10.39;46.79;99852.38;8254505;28;19940;-83
2022/04/05 09:40:23;;;;;;;;;;;12.20;42.20;;;10.39;46.72;99855.81;8232716;28;20599;-83
2022/04/05 09:44:44;;;;;;;;;;;12.20;41.60;;;10.51;46.73;99879.41;8256606;28;19941;-82
2022/04/05 09:49:12;;;;;;;;;;;12.30;42.00;;;10.51;46.74;99872.41;8258076;28;20161;-81
2022/04/05 09:53:40;;;;;;;;;;;12.30;42.00;;;10.55;46.21;99893.91;8223315;28;19932;-82
2022/04/05 09:58:11;;;;;;;;;;;12.30;41.80;;;10.44;46.82;99876.38;8234088;28;19929;-83
2022/04/05 10:02:33;;;;;;;;;;;12.20;42.00;;;10.54;46.97;99898.31;8247262;28;19964;-80
2022/04/05 10:06:55;;;;;;;;;;;12.30;42.00;;;10.44;46.83;99886.81;8201187;28;19922;-81
2022/04/05 10:11:16;;;;;;;;;;;12.30;42.00;;;10.49;46.22;99892.56;8234251;28;19922;-82
2022/04/05 10:15:38;;;;;;;;;;;12.20;41.80;;;10.53;46.22;99901.00;8261886;28;19926;-78
2022/04/05 10:20:01;;;;;;;;;;;12.20;41.90;;;10.49;47.04;99884.75;8231385;28;19933;-79
2022/04/05 10:24:23;;;;;;;;;;;12.10;41.90;;;10.49;46.67;99892.56;8229547;28;19928;-81
2022/04/05 10:28:47;;;;;;;;;;;12.30;41.80;;;10.57;46.67;99903.31;8214360;28;19928;-81
2022/04/05 10:33:33;;;;;;;;;;;12.10;41.90;;;10.53;46.51;99882.75;8220900;28;19922;-80
2022/04/05 10:38:14;;;;;;;;;;;12.30;42.00;;;10.73;46.55;99899.66;8233140;28;19930;-82
2022/04/05 10:42:41;;;;;;;;;;;12.40;42.10;;;10.67;46.98;99882.66;8219044;28;19928;-83
2022/04/05 10:47:06;;;;;;;;;;;12.40;42.00;;;10.75;46.79;99887.34;8220596;28;19922;-81
2022/04/05 10:51:31;;;;;;;;;;;12.50;42.10;;;10.84;46.79;99889.31;8234698;28;19921;-83
2022/04/05 10:56:06;;;;;;;;;;;12.50;42.00;;;10.93;46.61;99900.88;8242562;28;19929;-83
2022/04/05 11:00:28;;;;;;;;;;;12.60;41.80;;;10.75;46.30;99869.06;8254352;28;19928;-83
2022/04/05 11:04:58;;;;;;;;;;;12.60;41.70;;;10.82;46.50;99876.34;8220715;28;19918;-82
2022/04/05 11:09:28;;;;;;;;;;;12.70;41.70;;;10.85;46.59;99868.31;8227197;28;19921;-82
2022/04/05 11:14:01;;;;;;;;;;;12.70;41.90;;;11.11;46.67;99891.75;8245065;28;20382;-83
2022/04/05 11:18:27;;;;;;;;;;;12.70;42.00;;;11.07;46.63;99865.00;8239872;28;19921;-85
2022/04/05 11:22:58;;;;;;;;;;;12.60;41.80;;;11.14;46.75;99862.78;8247070;28;19928;-84
2022/04/05 11:27:30;;;;;;;;;;;12.80;41.90;;;11.30;46.22;99880.81;8236957;28;19928;-86
2022/04/05 11:32:08;;;;;;;;;;;12.90;41.70;;;11.37;46.42;99860.28;8238288;28;19929;-85
2022/04/05 11:36:40;;;;;;;;;;;13.00;41.80;;;11.44;46.67;99864.97;8231006;28;19926;-85
2022/04/05 11:41:08;;;;;;;;;;;13.10;41.80;;;11.41;46.21;99846.91;8264304;28;19922;-86
2022/04/05 11:45:30;;;;;;;;;;;13.20;41.70;;;11.56;46.43;99875.47;8235527;28;19922;-84
2022/04/05 11:49:53;;;;;;;;;;;13.30;41.50;;;11.48;46.57;99874.25;8240828;28;20381;-85
2022/04/05 11:54:18;;;;;;;;;;;13.20;41.20;;;11.25;45.96;99851.56;8223132;28;19958;-84
2022/04/05 11:58:43;;;;;;;;;;;13.20;41.10;;;11.29;46.09;99868.72;8205962;28;19922;-84
2022/04/05 12:03:06;;;;;;;;;;;13.10;41.10;;;11.34;45.84;99869.22;8253233;28;19944;-83
2022/04/05 12:07:35;;;;;;;;;;;13.20;41.30;;;11.37;45.88;99876.84;8241757;28;19932;-83
2022/04/05 12:11:56;;;;;;;;;;;13.10;41.20;;;11.34;45.66;99861.38;8255461;28;19997;-85
2022/04/05 12:16:18;;;;;;;;;;;13.10;41.30;;;11.38;45.86;99882.88;8235038;28;19932;-86
2022/04/05 12:20:40;;;;;;;;;;;13.10;41.20;;;11.30;46.10;99875.59;8219079;28;19929;-84
2022/04/05 12:25:02;;;;;;;;;;;13.00;41.10;;;11.34;46.09;99874.44;8229841;28;19926;-85
2022/04/05 12:29:25;;;;;;;;;;;13.10;41.30;;;11.35;46.24;99868.25;8245204;28;19932;-85
2022/04/05 12:34:09;;;;;;;;;;;13.10;41.30;;;11.34;46.28;99863.13;8231004;28;19932;-86
2022/04/05 12:38:31;;;;;;;;;;;13.10;41.30;;;11.34;46.03;99855.28;8239045;28;19921;-83
2022/04/05 12:42:53;;;;;;;;;;;13.10;41.40;;;11.54;46.31;99882.63;8243495;28;19928;-84
2022/04/05 12:47:20;;;;;;;;;;;13.20;41.40;;;11.50;45.69;99885.47;8233819;28;19924;-82
2022/04/05 12:51:41;;;;;;;;;;;13.20;41.30;;;11.52;46.01;99878.31;8250685;28;19922;-86
2022/04/05 12:56:14;;;;;;;;;;;13.20;41.20;;;11.55;46.31;99876.44;8251504;28;19925;-82
2022/04/05 13:00:43;;;;;;;;;;;13.20;41.30;;;11.44;45.96;99857.13;8243262;28;19925;-81
2022/04/05 13:09:59;;;;;;;;;;;13.20;41.20;;;11.47;45.86;99856.91;8229842;28;19923;-83
2022/04/05 13:14:20;;;;;;;;;;;13.30;41.10;;;11.34;46.14;99830.00;8212101;28;19930;-82
2022/04/05 13:18:46;;;;;;;;;;;13.10;41.20;;;11.40;45.58;99842.63;8234827;28;19923;-85
2022/04/05 13:23:09;;;;;;;;;;;13.10;41.10;;;11.51;45.85;99857.53;8219222;28;19922;-86
2022/04/05 13:27:30;;;;;;;;;;;13.20;41.20;;;11.54;45.80;99854.69;8244508;28;20389;-84
2022/04/05 13:31:57;;;;;;;;;;;13.20;41.20;;;11.54;45.91;99846.00;8219394;28;19922;-84
2022/04/05 13:36:19;;;;;;;;;;;13.30;41.00;;;11.68;46.12;99848.44;8238288;28;19929;-86
2022/04/05 13:40:41;;;;;;;;;;;13.30;41.20;;;11.74;45.69;99855.81;8240502;28;20201;-84
2022/04/05 13:45:03;;;;;;;;;;;13.40;41.30;;;11.60;45.82;99841.16;8220847;28;19937;-83
2022/04/05 13:49:25;;;;;;;;;;;13.40;41.30;;;11.66;45.78;99847.69;8253971;28;19921;-82
2022/04/05 13:53:47;;;;;;;;;;;13.40;41.30;;;11.76;45.65;99866.19;8241572;28;19925;-82
2022/04/05 13:58:09;;;;;;;;;;;13.20;41.20;;;11.64;45.97;99844.41;8229729;28;19951;-84
2022/04/05 14:02:30;;;;;;;;;;;13.40;41.40;;;11.64;45.77;99841.78;8232861;28;19922;-82
2022/04/05 14:06:52;;;;;;;;;;;13.40;41.40;;;11.59;45.90;99833.44;8234974;28;20656;-82
2022/04/05 14:11:14;;;;;;;;;;;13.40;41.50;;;11.62;45.50;99836.66;8246577;28;19926;-83
2022/04/05 14:15:35;;;;;;;;;;;13.20;41.60;;;11.51;45.57;99824.38;8239663;28;20326;-81
2022/04/05 14:19:57;;;;;;;;;;;13.30;41.70;;;11.50;45.89;99814.88;8236511;28;20381;-82
2022/04/05 14:24:19;;;;;;;;;;;13.40;41.80;;;11.56;45.80;99839.72;8243981;28;19922;-82
2022/04/05 14:28:42;;;;;;;;;;;13.30;41.60;;;11.58;45.66;99844.81;8249268;28;19921;-82
2022/04/05 14:33:04;;;;;;;;;;;13.30;41.70;;;11.47;45.67;99825.53;8239314;28;19944;-82
2022/04/05 14:37:26;;;;;;;;;;;13.20;41.90;;;11.54;45.79;99832.94;8229242;28;19926;-83
2022/04/05 14:41:48;;;;;;;;;;;13.10;41.80;;;11.54;45.78;99846.84;8256865;28;19925;-82
2022/04/05 14:46:09;;;;;;;;;;;13.20;42.10;;;11.47;45.99;99829.91;8212284;28;20403;-82
2022/04/05 14:50:33;;;;;;;;;;;13.20;42.30;;;11.50;45.72;99840.16;8252613;28;19926;-81
2022/04/05 14:54:55;;;;;;;;;;;13.10;42.20;;;11.39;45.59;99821.81;8243310;28;20388;-82
2022/04/05 14:59:17;;;;;;;;;;;13.10;42.10;;;11.29;45.65;99804.19;8229903;28;19928;-82
2022/04/05 15:03:38;;;;;;;;;;;13.00;42.20;;;11.45;45.49;99827.44;8238803;28;20370;-82
2022/04/05 15:08:01;;;;;;;;;;;13.10;42.20;;;11.31;45.56;99811.91;8237219;28;19917;-82
2022/04/05 15:12:24;;;;;;;;;;;13.10;42.30;;;11.27;46.03;99800.03;8231277;28;19922;-82
2022/04/05 15:16:46;;;;;;;;;;;13.10;42.40;;;11.38;46.15;99813.13;8243305;28;19926;-82
2022/04/05 15:21:08;;;;;;;;;;;13.00;42.50;;;11.41;45.60;99812.09;8231086;28;19925;-82
2022/04/05 15:25:30;;;;;;;;;;;13.00;42.90;;;11.46;45.68;99813.41;8245847;28;19922;-82
2022/04/05 15:29:52;;;;;;;;;;;13.00;42.70;;;11.49;46.37;99802.72;8242449;28;20371;-82
2022/04/05 15:34:13;;;;;;;;;;;13.00;42.60;;;11.28;45.91;99765.91;8252837;28;19926;-82
2022/04/05 15:38:35;;;;;;;;;;;13.10;42.70;;;11.55;46.40;99797.97;8225834;28;19928;-82
2022/04/05 15:42:58;;;;;;;;;;;13.10;42.80;;;11.57;46.30;99801.31;8251531;28;19925;-82
2022/04/05 15:47:20;;;;;;;;;;;13.00;42.90;;;11.54;46.04;99806.78;8222285;28;19929;-82
2022/04/05 15:51:41;;;;;;;;;;;13.20;42.80;;;11.44;45.91;99783.09;8232163;28;19922;-82
2022/04/05 15:56:04;;;;;;;;;;;13.20;42.90;;;11.55;45.83;99804.03;8236610;28;19925;-82
2022/04/05 16:00:26;;;;;;;;;;;13.20;42.90;;;11.50;46.14;99793.09;8268386;28;19921;-82
2022/04/05 16:04:48;;;;;;;;;;;13.20;42.90;;;11.48;46.15;99802.84;8236867;28;19925;-83
2022/04/05 16:09:11;;;;;;;;;;;13.40;43.00;;;11.52;46.25;99791.19;8251090;28;19928;-82
2022/04/05 16:13:32;;;;;;;;;;;13.20;42.90;;;11.54;46.43;99799.78;8238926;28;19928;-82
2022/04/05 16:17:54;;;;;;;;;;;13.20;43.30;;;11.57;45.81;99806.56;8254874;28;19925;-82
2022/04/05 16:22:17;;;;;;;;;;;13.10;43.20;;;11.57;46.54;99796.09;8245046;28;19922;-82
2022/04/05 16:26:39;;;;;;;;;;;13.10;43.20;;;11.52;46.56;99781.56;8245439;28;19960;-82
2022/04/05 16:31:01;;;;;;;;;;;13.20;43.20;;;11.63;46.46;99793.03;8220641;28;19928;-81
2022/04/05 16:35:22;;;;;;;;;;;13.10;43.40;;;11.62;46.11;99789.56;8250219;28;20121;-81
2022/04/05 16:39:44;;;;;;;;;;;13.10;43.30;;;11.60;46.17;99801.09;8227949;28;20351;-81
2022/04/05 16:44:07;;;;;;;;;;;13.20;43.20;;;11.49;46.48;99780.97;8264320;28;20449;-81
2022/04/05 16:48:29;;;;;;;;;;;13.00;43.20;;;11.61;46.20;99793.16;8230685;28;20341;-81
2022/04/05 16:52:50;;;;;;;;;;;13.20;43.20;;;11.49;46.35;99776.56;8246654;28;19921;-80
2022/04/05 16:57:14;;;;;;;;;;;13.10;43.20;;;11.40;46.43;99764.19;8225575;28;19930;-81
2022/04/05 17:01:36;;;;;;;;;;;13.10;43.20;;;11.55;45.92;99784.91;8256251;28;19932;-81
2022/04/05 17:05:58;;;;;;;;;;;13.10;43.20;;;11.56;46.32;99783.94;8223038;28;19921;-81
2022/04/05 17:10:20;;;;;;;;;;;13.10;43.30;;;11.52;46.29;99770.28;8250242;28;19928;-82
2022/04/05 17:14:41;;;;;;;;;;;13.10;43.40;;;11.57;46.13;99785.63;8235423;28;19932;-81
2022/04/05 17:19:03;;;;;;;;;;;13.10;43.30;;;11.51;46.27;99772.06;8225811;28;19928;-82
2022/04/05 17:23:25;;;;;;;;;;;13.10;43.30;;;11.47;46.74;99765.38;8239239;28;19921;-81
2022/04/05 17:27:47;;;;;;;;;;;13.00;43.20;;;11.40;46.67;99750.31;8243322;28;19922;-81
2022/04/05 17:32:10;;;;;;;;;;;13.00;43.20;;;11.48;46.40;99769.69;8258226;28;19933;-81
2022/04/05 17:36:32;;;;;;;;;;;13.00;43.20;;;11.35;46.41;99749.81;8239544;28;19926;-82
2022/04/05 17:40:53;;;;;;;;;;;13.00;43.30;;;11.47;46.17;99786.31;8240435;28;19926;-82
2022/04/05 17:45:15;;;;;;;;;;;12.90;43.30;;;11.48;46.40;99779.31;8246457;28;19926;-82
2022/04/05 17:49:38;;;;;;;;;;;13.00;43.30;;;11.44;46.28;99767.41;8223761;28;20386;-82
2022/04/05 17:54:00;;;;;;;;;;;13.00;43.30;;;11.42;46.39;99751.84;8252233;28;19933;-82
2022/04/05 17:58:21;;;;;;;;;;;13.00;43.30;;;11.50;46.52;99765.19;8267305;28;20651;-82
2022/04/05 18:02:43;;;;;;;;;;;12.90;43.30;;;11.45;46.53;99743.78;8253777;28;19921;-82
2022/04/05 18:07:08;;;;;;;;;;;13.10;43.40;;;11.49;46.69;99744.38;8250822;28;19932;-82
2022/04/05 18:11:32;;;;;;;;;;;13.10;43.50;;;11.40;46.27;99732.84;8234668;28;19921;-82
2022/04/05 18:15:55;;;;;;;;;;;13.10;43.40;;;11.47;46.55;99739.25;8256873;28;19926;-82
2022/04/05 18:20:17;;;;;;;;;;;13.10;43.40;;;11.51;46.47;99760.78;8257917;28;19928;-82
2022/04/05 18:24:38;;;;;;;;;;;13.00;43.60;;;11.42;46.45;99759.69;8243079;28;19929;-82
2022/04/05 18:29:00;;;;;;;;;;;13.10;43.50;;;11.38;46.92;99750.41;8253270;28;19924;-82
2022/04/05 18:33:21;;;;;;;;;;;12.90;43.60;;;11.41;46.66;99755.41;8223297;28;19928;-82
2022/04/05 18:37:43;;;;;;;;;;;12.90;43.50;;;11.49;46.44;99760.06;8267469;28;19930;-82
2022/04/05 18:42:05;;;;;;;;;;;13.00;43.70;;;11.40;46.56;99751.13;8233508;28;20592;-82
2022/04/05 18:46:27;;;;;;;;;;;13.00;43.90;;;11.44;46.64;99755.16;8260644;28;19928;-81
2022/04/05 18:50:49;;;;;;;;;;;13.00;43.80;;;11.45;46.55;99751.63;8238447;28;19926;-82
2022/04/05 18:55:10;;;;;;;;;;;12.80;43.80;;;11.26;46.58;99719.94;8215220;28;19926;-82
2022/04/05 18:59:32;;;;;;;;;;;12.80;44.20;;;11.41;46.97;99744.13;8238232;28;20322;-82
2022/04/05 19:03:54;;;;;;;;;;;13.00;43.90;;;11.27;46.55;99729.47;8255787;28;19925;-81
2022/04/05 19:08:15;;;;;;;;;;;13.00;44.00;;;11.30;46.70;99735.28;8262959;28;19921;-82
2022/04/05 19:12:37;;;;;;;;;;;13.00;44.00;;;11.38;47.09;99746.97;8254227;28;19922;-81
2022/04/05 19:16:59;;;;;;;;;;;12.80;44.10;;;11.23;47.07;99723.63;8231834;28;20380;-81
2022/04/05 19:21:21;;;;;;;;;;;12.90;44.60;;;11.33;47.06;99755.13;8252088;28;19918;-81
2022/04/05 19:25:42;;;;;;;;;;;12.90;44.30;;;11.35;47.29;99757.66;8229448;28;19928;-81
2022/04/05 19:30:11;;;;;;;;;;;12.90;44.40;;;11.34;46.88;99762.06;8239906;28;20280;-82
2022/04/05 19:34:33;;;;;;;;;;;12.90;44.30;;;11.19;47.24;99737.88;8234811;28;20409;-81
2022/04/05 19:38:55;;;;;;;;;;;12.80;45.10;;;11.11;46.83;99734.16;8246556;28;20385;-81
2022/04/05 19:43:17;;;;;;;;;;;12.80;44.90;;;11.16;47.47;99732.03;8211905;28;19937;-81
2022/04/05 19:47:38;;;;;;;;;;;12.80;45.60;;;11.20;47.25;99749.97;8237517;28;19929;-81
2022/04/05 19:52:00;;;;;;;;;;;12.80;45.00;;;11.13;46.64;99732.28;8243479;28;19921;-81
2022/04/05 19:56:25;;;;;;;;;;;12.60;45.10;;;11.11;47.16;99734.16;8231278;28;19932;-81
2022/04/05 20:00:46;;;;;;;;;;;12.70;45.00;;;11.05;46.78;99731.03;8229571;28;20383;-81
2022/04/05 20:05:11;;;;;;;;;;;12.70;45.00;;;10.90;47.18;99706.03;8269829;28;19928;-82
2022/04/05 20:09:32;;;;;;;;;;;12.60;45.00;;;11.00;47.45;99727.94;8270646;28;19943;-82
2022/04/05 20:13:56;;;;;;;;;;;12.40;45.00;;;10.90;47.64;99713.03;8238999;28;19930;-81
2022/04/05 20:22:58;;;;;;;;;;;12.50;45.10;;;11.00;46.97;99730.53;8240819;28;20275;-80
2022/04/05 20:27:20;;;;;;;;;;;12.50;45.40;;;10.91;46.84;99718.16;8247721;28;19926;-81
2022/04/05 20:31:41;;;;;;;;;;;12.50;45.60;;;10.95;47.25;99716.97;8240494;28;19948;-82